Unispirit — V2BS1 — position and weather

sailwx.info

Track history (hours):
 
Tides and Currents Weather Stations Pressure Air Temp Water Temp Dewpoint Dewpoint Depression Visibility Wind Speed Wind Dir Waves Ship Positions

Unispirit

Last reported at 2017-Jul-18 05:53 UTC. Time now 2017-Aug-22 09:18 UTC.
Position N 24°04' W 017°45'.
Warning: this ship's position is 35 days out of date.

Length 132 m; draft 5.7 m.

Type: Ship (hazmat cat D). MMSI: 304908000.

Date/timePositionNaut miles runAvg speedWind from/ knotsBaromVisibWave heightAir tempDewpointWater temp
2017-Jul-18 05:53N 24°04' W 017°45'22014.9
2017-Jul-17 15:07N 27°34' W 016°29'216.7
2017-Jul-17 15:00N 27°35' W 016°28'714.7
2017-Jul-17 14:30N 27°42' W 016°26'815.1
2017-Jul-17 14:00N 27°50' W 016°23'714.4
2017-Jul-17 13:31N 27°57' W 016°21'714.8
2017-Jul-17 13:00N 28°04' W 016°19'1015.7
2017-Jul-17 12:23N 28°11' W 016°11'615.6
2017-Jul-17 12:00N 28°15' W 016°06'715.3
2017-Jul-17 11:30N 28°21' W 016°01'815.2
2017-Jul-17 11:00N 28°27' W 015°56'815.0
2017-Jul-17 10:30N 28°33' W 015°50'714.5
2017-Jul-17 10:00N 28°39' W 015°46'714.3
2017-Jul-17 09:30N 28°45' W 015°42'714.4
2017-Jul-17 09:00N 28°52' W 015°39'714.7
2017-Jul-17 08:30N 28°59' W 015°37'815.0
2017-Jul-17 08:00N 29°06' W 015°34'714.9
2017-Jul-17 07:30N 29°13' W 015°31'714.7
2017-Jul-17 07:00N 29°20' W 015°29'714.6
2017-Jul-17 06:30N 29°27' W 015°27'714.5
2017-Jul-17 06:00N 29°34' W 015°24'714.5
2017-Jul-17 05:30N 29°41' W 015°22'714.5
2017-Jul-17 05:00N 29°48' W 015°19'714.4
2017-Jul-17 04:30N 29°55' W 015°17'714.5
2017-Jul-17 04:00N 30°02' W 015°14'714.4
2017-Jul-17 03:30N 30°09' W 015°12'714.4
2017-Jul-17 03:00N 30°15' W 015°09'714.6
2017-Jul-17 02:30N 30°22' W 015°06'714.6
2017-Jul-17 02:00N 30°29' W 015°04'714.7
2017-Jul-17 01:30N 30°36' W 015°01'714.8
2017-Jul-17 01:00N 30°43' W 014°59'714.6
2017-Jul-17 00:30N 30°50' W 014°56'714.6
2017-Jul-17 00:00N 30°57' W 014°54'714.7
2017-Jul-16 23:30N 31°04' W 014°51'714.5
2017-Jul-16 23:01N 31°11' W 014°49'714.6
2017-Jul-16 22:30N 31°18' W 014°46'714.9
2017-Jul-16 22:00N 31°25' W 014°43'714.1
2017-Jul-16 21:30N 31°32' W 014°41'714.5
2017-Jul-16 21:00N 31°39' W 014°38'714.3
2017-Jul-16 20:29N 31°46' W 014°35'714.1
2017-Jul-16 20:00N 31°52' W 014°33'713.8
2017-Jul-16 19:31N 31°59' W 014°30'713.8
2017-Jul-16 19:00N 32°05' W 014°28'714.0
2017-Jul-16 18:31N 32°12' W 014°25'714.2
2017-Jul-16 18:00N 32°19' W 014°23'714.3
2017-Jul-16 17:30N 32°26' W 014°20'714.2
2017-Jul-16 17:00N 32°32' W 014°18'814.1
2017-Jul-16 16:28N 32°40' W 014°15'714.5
2017-Jul-16 16:01N 32°46' W 014°13'714.0
2017-Jul-16 15:30N 32°53' W 014°10'714.2
2017-Jul-16 15:00N 32°59' W 014°07'714.3
2017-Jul-16 14:30N 33°06' W 014°05'714.5
2017-Jul-16 14:00N 33°13' W 014°02'714.4
2017-Jul-16 13:30N 33°20' W 013°60'714.1
2017-Jul-16 13:00N 33°27' W 013°57'714.1
2017-Jul-16 12:31N 33°33' W 013°54'714.0
2017-Jul-16 12:00N 33°40' W 013°52'714.0
2017-Jul-16 11:30N 33°47' W 013°49'714.0
2017-Jul-16 11:00N 33°53' W 013°46'714.0
2017-Jul-16 10:30N 34°00' W 013°44'714.1
2017-Jul-16 10:00N 34°07' W 013°41'714.2
2017-Jul-16 09:30N 34°13' W 013°39'713.9
2017-Jul-16 08:59N 34°20' W 013°36'714.1
2017-Jul-16 08:29N 34°27' W 013°34'714.2
2017-Jul-16 08:01N 34°34' W 013°31'714.2
2017-Jul-16 07:31N 34°40' W 013°29'714.2
2017-Jul-16 07:00N 34°47' W 013°26'714.3
2017-Jul-16 06:30N 34°54' W 013°23'714.2
2017-Jul-16 06:00N 35°01' W 013°21'714.2
2017-Jul-16 05:30N 35°07' W 013°18'714.0
2017-Jul-16 05:00N 35°14' W 013°15'714.1
2017-Jul-16 04:30N 35°21' W 013°13'714.0
2017-Jul-16 04:00N 35°27' W 013°10'714.1
2017-Jul-16 03:30N 35°34' W 013°07'714.1
2017-Jul-16 03:01N 35°41' W 013°05'714.2
2017-Jul-16 02:31N 35°48' W 013°02'714.3
2017-Jul-16 02:01N 35°54' W 012°59'714.6
2017-Jul-16 01:30N 36°02' W 012°57'714.4
2017-Jul-16 01:00N 36°08' W 012°54'714.3
2017-Jul-16 00:31N 36°15' W 012°51'714.6
2017-Jul-16 00:01N 36°22' W 012°49'714.5
2017-Jul-15 23:31N 36°29' W 012°46'714.7
2017-Jul-15 23:01N 36°36' W 012°43'714.6
2017-Jul-15 22:30N 36°43' W 012°40'814.8
2017-Jul-15 22:00N 36°50' W 012°37'715.0
2017-Jul-15 21:31N 36°57' W 012°35'714.9
2017-Jul-15 21:01N 37°04' W 012°32'714.8
2017-Jul-15 20:30N 37°11' W 012°29'714.9
2017-Jul-15 20:00N 37°18' W 012°26'715.0
2017-Jul-15 19:30N 37°26' W 012°23'815.1
2017-Jul-15 19:01N 37°33' W 012°20'714.9
2017-Jul-15 18:31N 37°40' W 012°17'714.8
2017-Jul-15 18:00N 37°47' W 012°15'714.8
2017-Jul-15 17:30N 37°54' W 012°12'714.7
2017-Jul-15 17:00N 38°01' W 012°09'714.7
2017-Jul-15 16:31N 38°08' W 012°06'714.5
2017-Jul-15 16:00N 38°15' W 012°03'814.4
2017-Jul-15 15:27N 38°22' W 011°60'614.5
2017-Jul-15 15:00N 38°29' W 011°57'1514.4
2017-Jul-15 13:59N 38°43' W 011°52'714.3
2017-Jul-15 13:30N 38°49' W 011°49'714.3
2017-Jul-15 13:00N 38°56' W 011°46'714.3
2017-Jul-15 12:30N 39°03' W 011°44'814.5
2017-Jul-15 11:59N 39°10' W 011°41'714.9
2017-Jul-15 11:30N 39°17' W 011°38'714.6
2017-Jul-15 11:00N 39°24' W 011°35'714.4
2017-Jul-15 10:30N 39°31' W 011°33'714.4
2017-Jul-15 10:00N 39°38' W 011°30'714.9
2017-Jul-15 09:30N 39°45' W 011°27'714.5
2017-Jul-15 09:00N 39°51' W 011°23'714.5
2017-Jul-15 08:30N 39°58' W 011°20'714.9
2017-Jul-15 08:00N 40°05' W 011°17'714.4
2017-Jul-15 07:30N 40°12' W 011°14'714.3
2017-Jul-15 07:00N 40°19' W 011°11'814.8
2017-Jul-15 06:29N 40°26' W 011°08'914.9
2017-Jul-15 05:51N 40°35' W 011°05'614.8
2017-Jul-15 05:28N 40°41' W 011°03'2114.9
2017-Jul-15 04:05N 41°00' W 010°54'115.0
2017-Jul-15 04:00N 41°02' W 010°54'715.0
2017-Jul-15 03:30N 41°09' W 010°51'2115.0
2017-Jul-15 02:07N 41°28' W 010°42'215.1
2017-Jul-15 02:00N 41°30' W 010°41'714.8
2017-Jul-15 01:31N 41°37' W 010°39'714.6
2017-Jul-15 01:00N 41°44' W 010°36'714.9
2017-Jul-15 00:30N 41°51' W 010°33'1815.2
2017-Jul-14 23:18N 42°09' W 010°25'515.0
2017-Jul-14 23:00N 42°13' W 010°23'814.9
2017-Jul-14 22:29N 42°20' W 010°20'715.3
2017-Jul-14 22:00N 42°27' W 010°18'815.4
2017-Jul-14 21:31N 42°35' W 010°15'815.1
2017-Jul-14 21:00N 42°42' W 010°13'815.0
2017-Jul-14 20:30N 42°49' W 010°10'714.4
2017-Jul-14 20:00N 42°56' W 010°08'814.8
2017-Jul-14 19:29N 43°04' W 010°08'914.4
2017-Jul-14 18:50N 43°13' W 010°08'27514.3
2017-Jul-13 23:38N 47°17' W 007°07'1114.4
2017-Jul-13 22:53N 47°26' W 006°60'3615.4
2017-Jul-13 20:33N 47°57' W 006°33'7113.7
2017-Jul-13 15:23N 48°58' W 005°37'1014.2
2017-Jul-13 14:39N 49°03' W 005°24'214.5
2017-Jul-13 14:30N 49°04' W 005°21'714.5
2017-Jul-13 14:00N 49°08' W 005°11'5614.5
2017-Jul-13 10:07N 49°36' W 003°56'213.3
2017-Jul-13 09:58N 49°37' W 003°54'613.1
2017-Jul-13 09:30N 49°40' W 003°46'612.8
2017-Jul-13 09:01N 49°43' W 003°37'612.8
2017-Jul-13 08:30N 49°47' W 003°28'612.9
2017-Jul-13 08:00N 49°50' W 003°20'713.3
2017-Jul-13 07:30N 49°53' W 003°11'713.9
2017-Jul-13 07:00N 49°56' W 003°01'714.2
2017-Jul-13 06:30N 49°59' W 002°51'815.1
2017-Jul-13 06:00N 50°01' W 002°40'2516.8
2017-Jul-13 04:33N 50°08' W 002°03'117.7
2017-Jul-13 04:30N 50°08' W 002°02'917.9
2017-Jul-13 04:00N 50°11' W 001°49'917.7
2017-Jul-13 03:31N 50°15' W 001°36'917.4
2017-Jul-13 03:00N 50°17' W 001°23'817.0
2017-Jul-13 02:30N 50°19' W 001°10'3414.4
2017-Jul-13 00:10N 50°28' W 000°19'213.1
2017-Jul-13 00:00N 50°29' W 000°16'713.0
2017-Jul-12 23:30N 50°31' W 000°06'612.7
2017-Jul-12 23:00N 50°33' E 000°04'612.5
2017-Jul-12 22:30N 50°34' E 000°13'712.9
2017-Jul-12 22:00N 50°36' E 000°23'713.5
2017-Jul-12 21:30N 50°38' E 000°33'714.5
2017-Jul-12 21:00N 50°43' E 000°42'2515.9
2017-Jul-12 19:27N 50°58' E 001°14'716.4
2017-Jul-12 19:00N 51°02' E 001°22'815.9
2017-Jul-12 18:31N 51°07' E 001°33'714.8
2017-Jul-12 18:00N 51°11' E 001°42'714.1
2017-Jul-12 17:31N 51°17' E 001°49'713.6
2017-Jul-12 17:01N 51°22' E 001°55'713.0
2017-Jul-12 16:30N 51°28' E 002°01'713.0
2017-Jul-12 16:00N 51°33' E 002°08'21314.5
2017-Jul-12 01:17N 54°37' E 005°06'514.6
2017-Jul-12 00:59N 54°41' E 005°10'714.4
2017-Jul-12 00:30N 54°47' E 005°17'22213.8
2017-Jul-11 08:23N 57°35' E 009°36'614.4
2017-Jul-11 08:00N 57°38' E 009°45'714.3
2017-Jul-11 07:30N 57°41' E 009°57'1314.3
2017-Jul-11 06:34N 57°46' E 010°20'114.2
2017-Jul-11 06:30N 57°47' E 010°22'713.8
2017-Jul-11 06:00N 57°47' E 010°35'713.7
2017-Jul-11 05:30N 57°47' E 010°48'714.0
2017-Jul-11 04:59N 57°42' E 010°58'714.0
2017-Jul-11 04:31N 57°38' E 011°07'714.4
2017-Jul-11 04:00N 57°33' E 011°18'714.6
2017-Jul-11 03:31N 57°28' E 011°27'814.9
2017-Jul-11 03:00N 57°20' E 011°31'715.1
2017-Jul-11 02:30N 57°13' E 011°36'1015.0
2017-Jul-11 01:52N 57°04' E 011°42'1114.7
2017-Jul-11 01:06N 56°54' E 011°50'414.6
2017-Jul-11 00:52N 56°51' E 011°52'614.7
2017-Jul-11 00:28N 56°45' E 011°54'714.6
2017-Jul-11 00:00N 56°39' E 011°58'714.5
2017-Jul-10 23:31N 56°31' E 012°00'1714.2
2017-Jul-10 22:21N 56°16' E 012°11'514.5
2017-Jul-10 22:01N 56°13' E 012°18'815.2
2017-Jul-10 21:31N 56°09' E 012°29'815.9
2017-Jul-10 21:01N 56°03' E 012°39'714.7
2017-Jul-10 20:31N 55°56' E 012°44'714.6
2017-Jul-10 20:01N 55°49' E 012°43'714.2
2017-Jul-10 19:30N 55°42' E 012°41'713.1
2017-Jul-10 19:01N 55°35' E 012°42'612.1
2017-Jul-10 18:30N 55°29' E 012°43'714.3
2017-Jul-10 18:00N 55°22' E 012°41'611.5
2017-Jul-10 17:30N 55°17' E 012°46'714.2
2017-Jul-10 17:01N 55°16' E 012°58'714.6
2017-Jul-10 16:31N 55°15' E 013°11'714.7
2017-Jul-10 16:01N 55°15' E 013°24'815.1
2017-Jul-10 15:30N 55°15' E 013°37'815.4
2017-Jul-10 15:00N 55°14' E 013°51'815.3
2017-Jul-10 14:30N 55°14' E 014°04'715.0
2017-Jul-10 14:01N 55°14' E 014°17'714.8
2017-Jul-10 13:31N 55°20' E 014°26'714.9
2017-Jul-10 13:01N 55°25' E 014°34'714.8
2017-Jul-10 12:31N 55°29' E 014°45'714.8
2017-Jul-10 12:01N 55°33' E 014°56'714.9
2017-Jul-10 11:30N 55°36' E 015°08'815.1
2017-Jul-10 11:01N 55°40' E 015°20'815.1
2017-Jul-10 10:31N 55°44' E 015°31'815.0
2017-Jul-10 10:01N 55°47' E 015°43'714.9
2017-Jul-10 09:31N 55°51' E 015°54'714.9
2017-Jul-10 09:00N 55°55' E 016°06'815.0
2017-Jul-10 08:30N 55°59' E 016°17'714.9
2017-Jul-10 08:01N 56°02' E 016°29'815.0
2017-Jul-10 07:31N 56°06' E 016°40'714.9
2017-Jul-10 07:00N 56°11' E 016°51'714.7
2017-Jul-10 06:31N 56°15' E 017°02'814.6
2017-Jul-10 05:56N 56°20' E 017°14'714.4
2017-Jul-10 05:26N 56°25' E 017°24'814.2
2017-Jul-10 04:53N 56°29' E 017°35'19514.3
2017-Jul-09 15:15N 59°01' E 021°26'414.7
2017-Jul-09 15:00N 59°04' E 021°30'714.5
2017-Jul-09 14:31N 59°10' E 021°39'714.7
2017-Jul-09 14:00N 59°14' E 021°50'714.7
2017-Jul-09 13:31N 59°19' E 022°01'714.8
2017-Jul-09 13:01N 59°23' E 022°13'714.8
2017-Jul-09 12:31N 59°28' E 022°25'714.7
2017-Jul-09 12:01N 59°31' E 022°38'714.8
2017-Jul-09 11:31N 59°33' E 022°52'714.9
2017-Jul-09 11:00N 59°35' E 023°06'714.7
2017-Jul-09 10:31N 59°37' E 023°20'714.7
2017-Jul-09 10:01N 59°39' E 023°34'714.6
2017-Jul-09 09:31N 59°41' E 023°48'714.7
2017-Jul-09 09:01N 59°43' E 024°02'714.9
2017-Jul-09 08:31N 59°45' E 024°16'714.6
2017-Jul-09 08:01N 59°47' E 024°30'714.8
2017-Jul-09 07:31N 59°49' E 024°44'714.7
2017-Jul-09 07:01N 59°51' E 024°58'714.7
2017-Jul-09 06:31N 59°52' E 025°13'714.6
2017-Jul-09 06:01N 59°53' E 025°27'714.7
2017-Jul-09 05:31N 59°54' E 025°42'714.8
2017-Jul-09 05:00N 59°56' E 025°56'714.5
2017-Jul-09 04:31N 59°58' E 026°10'714.6
2017-Jul-09 04:01N 59°60' E 026°24'714.2
2017-Jul-09 03:30N 60°01' E 026°38'714.6
2017-Jul-09 03:00N 59°60' E 026°52'714.2
2017-Jul-09 02:31N 60°00' E 027°06'714.6
2017-Jul-09 02:01N 60°04' E 027°19'714.7
2017-Jul-09 01:31N 60°08' E 027°31'714.7
2017-Jul-09 01:01N 60°11' E 027°44'714.4
2017-Jul-09 00:31N 60°11' E 027°59'612.4
2017-Jul-09 00:00N 60°06' E 028°07'714.8
2017-Jul-08 23:30N 59°58' E 028°09'714.7
2017-Jul-08 23:00N 59°51' E 028°12'714.6
2017-Jul-08 22:30N 59°44' E 028°15'4 7.1
2017-Jul-08 22:00N 59°42' E 028°21'2 4.7
2017-Jul-08 21:30N 59°41' E 028°25'0 0.5
2017-Jul-08 20:50N 59°41' E 028°25'0 0.0
2017-Jul-08 20:23N 59°41' E 028°25'0 0.0
2017-Jul-08 19:53N 59°41' E 028°25'0 0.0
2017-Jul-08 19:23N 59°41' E 028°25'0 0.0
2017-Jul-08 18:53N 59°41' E 028°25'0 0.0
2017-Jul-08 18:29N 59°41' E 028°25'0 0.0
2017-Jul-08 17:59N 59°41' E 028°25'0 0.0
2017-Jul-08 17:29N 59°41' E 028°25'0 0.0
2017-Jul-08 16:56N 59°41' E 028°25'0 0.0
2017-Jul-08 16:26N 59°41' E 028°25'0 0.0
2017-Jul-08 15:56N 59°41' E 028°25'0 0.0
2017-Jul-08 15:26N 59°41' E 028°25'0 0.0
2017-Jul-08 14:59N 59°41' E 028°25'0 0.0
2017-Jul-08 13:59N 59°41' E 028°25'0 0.0
2017-Jul-08 13:29N 59°41' E 028°25'0 0.0
2017-Jul-08 12:59N 59°41' E 028°25'0 0.0
2017-Jul-08 12:29N 59°41' E 028°25'0 0.0
2017-Jul-08 11:59N 59°41' E 028°25'0 0.0
2017-Jul-08 11:29N 59°41' E 028°25'0 0.0
2017-Jul-08 10:59N 59°41' E 028°25'0 0.0
2017-Jul-08 10:29N 59°41' E 028°25'0 0.0
2017-Jul-08 09:59N 59°41' E 028°25'0 0.0
2017-Jul-08 09:29N 59°41' E 028°25'0 0.0
2017-Jul-08 08:59N 59°41' E 028°25'0 0.0
2017-Jul-08 08:29N 59°41' E 028°25'0 0.0
2017-Jul-08 07:59N 59°41' E 028°25'0 0.0
2017-Jul-08 07:29N 59°41' E 028°25'0 0.0
2017-Jul-08 06:56N 59°41' E 028°25'0 0.0
2017-Jul-08 06:29N 59°41' E 028°25'0 0.0
2017-Jul-08 06:00N 59°41' E 028°25'  
Track history (hours):
 
Tides and Currents Weather Stations Pressure Air Temp Water Temp Dewpoint Dewpoint Depression Visibility Wind Speed Wind Dir Waves Ship Positions

Unispirit

Last reported at 2017-Jul-18 05:53 UTC. Time now 2017-Aug-22 09:18 UTC.
Position N 24°04' W 017°45'.
Warning: this ship's position is 35 days out of date.

Length 132 m; draft 5.7 m.

Type: Ship (hazmat cat D). MMSI: 304908000.

Date/timePositionNaut miles runAvg speedWind from/ knotsBaromVisibWave heightAir tempDewpointWater temp
2017-Jul-18 05:53N 24°04' W 017°45'22014.9
2017-Jul-17 15:07N 27°34' W 016°29'216.7
2017-Jul-17 15:00N 27°35' W 016°28'714.7
2017-Jul-17 14:30N 27°42' W 016°26'815.1
2017-Jul-17 14:00N 27°50' W 016°23'714.4
2017-Jul-17 13:31N 27°57' W 016°21'714.8
2017-Jul-17 13:00N 28°04' W 016°19'1015.7
2017-Jul-17 12:23N 28°11' W 016°11'615.6
2017-Jul-17 12:00N 28°15' W 016°06'715.3
2017-Jul-17 11:30N 28°21' W 016°01'815.2
2017-Jul-17 11:00N 28°27' W 015°56'815.0
2017-Jul-17 10:30N 28°33' W 015°50'714.5
2017-Jul-17 10:00N 28°39' W 015°46'714.3
2017-Jul-17 09:30N 28°45' W 015°42'714.4
2017-Jul-17 09:00N 28°52' W 015°39'714.7
2017-Jul-17 08:30N 28°59' W 015°37'815.0
2017-Jul-17 08:00N 29°06' W 015°34'714.9
2017-Jul-17 07:30N 29°13' W 015°31'714.7
2017-Jul-17 07:00N 29°20' W 015°29'714.6
2017-Jul-17 06:30N 29°27' W 015°27'714.5
2017-Jul-17 06:00N 29°34' W 015°24'714.5
2017-Jul-17 05:30N 29°41' W 015°22'714.5
2017-Jul-17 05:00N 29°48' W 015°19'714.4
2017-Jul-17 04:30N 29°55' W 015°17'714.5
2017-Jul-17 04:00N 30°02' W 015°14'714.4
2017-Jul-17 03:30N 30°09' W 015°12'714.4
2017-Jul-17 03:00N 30°15' W 015°09'714.6
2017-Jul-17 02:30N 30°22' W 015°06'714.6
2017-Jul-17 02:00N 30°29' W 015°04'714.7
2017-Jul-17 01:30N 30°36' W 015°01'714.8
2017-Jul-17 01:00N 30°43' W 014°59'714.6
2017-Jul-17 00:30N 30°50' W 014°56'714.6
2017-Jul-17 00:00N 30°57' W 014°54'714.7
2017-Jul-16 23:30N 31°04' W 014°51'714.5
2017-Jul-16 23:01N 31°11' W 014°49'714.6
2017-Jul-16 22:30N 31°18' W 014°46'714.9
2017-Jul-16 22:00N 31°25' W 014°43'714.1
2017-Jul-16 21:30N 31°32' W 014°41'714.5
2017-Jul-16 21:00N 31°39' W 014°38'714.3
2017-Jul-16 20:29N 31°46' W 014°35'714.1
2017-Jul-16 20:00N 31°52' W 014°33'713.8
2017-Jul-16 19:31N 31°59' W 014°30'713.8
2017-Jul-16 19:00N 32°05' W 014°28'714.0
2017-Jul-16 18:31N 32°12' W 014°25'714.2
2017-Jul-16 18:00N 32°19' W 014°23'714.3
2017-Jul-16 17:30N 32°26' W 014°20'714.2
2017-Jul-16 17:00N 32°32' W 014°18'814.1
2017-Jul-16 16:28N 32°40' W 014°15'714.5
2017-Jul-16 16:01N 32°46' W 014°13'714.0
2017-Jul-16 15:30N 32°53' W 014°10'714.2
2017-Jul-16 15:00N 32°59' W 014°07'714.3
2017-Jul-16 14:30N 33°06' W 014°05'714.5
2017-Jul-16 14:00N 33°13' W 014°02'714.4
2017-Jul-16 13:30N 33°20' W 013°60'714.1
2017-Jul-16 13:00N 33°27' W 013°57'714.1
2017-Jul-16 12:31N 33°33' W 013°54'714.0
2017-Jul-16 12:00N 33°40' W 013°52'714.0
2017-Jul-16 11:30N 33°47' W 013°49'714.0
2017-Jul-16 11:00N 33°53' W 013°46'714.0
2017-Jul-16 10:30N 34°00' W 013°44'714.1
2017-Jul-16 10:00N 34°07' W 013°41'714.2
2017-Jul-16 09:30N 34°13' W 013°39'713.9
2017-Jul-16 08:59N 34°20' W 013°36'714.1
2017-Jul-16 08:29N 34°27' W 013°34'714.2
2017-Jul-16 08:01N 34°34' W 013°31'714.2
2017-Jul-16 07:31N 34°40' W 013°29'714.2
2017-Jul-16 07:00N 34°47' W 013°26'714.3
2017-Jul-16 06:30N 34°54' W 013°23'714.2
2017-Jul-16 06:00N 35°01' W 013°21'714.2
2017-Jul-16 05:30N 35°07' W 013°18'714.0
2017-Jul-16 05:00N 35°14' W 013°15'714.1
2017-Jul-16 04:30N 35°21' W 013°13'714.0
2017-Jul-16 04:00N 35°27' W 013°10'714.1
2017-Jul-16 03:30N 35°34' W 013°07'714.1
2017-Jul-16 03:01N 35°41' W 013°05'714.2
2017-Jul-16 02:31N 35°48' W 013°02'714.3
2017-Jul-16 02:01N 35°54' W 012°59'714.6
2017-Jul-16 01:30N 36°02' W 012°57'714.4
2017-Jul-16 01:00N 36°08' W 012°54'714.3
2017-Jul-16 00:31N 36°15' W 012°51'714.6
2017-Jul-16 00:01N 36°22' W 012°49'714.5
2017-Jul-15 23:31N 36°29' W 012°46'714.7
2017-Jul-15 23:01N 36°36' W 012°43'714.6
2017-Jul-15 22:30N 36°43' W 012°40'814.8
2017-Jul-15 22:00N 36°50' W 012°37'715.0
2017-Jul-15 21:31N 36°57' W 012°35'714.9
2017-Jul-15 21:01N 37°04' W 012°32'714.8
2017-Jul-15 20:30N 37°11' W 012°29'714.9
2017-Jul-15 20:00N 37°18' W 012°26'715.0
2017-Jul-15 19:30N 37°26' W 012°23'815.1
2017-Jul-15 19:01N 37°33' W 012°20'714.9
2017-Jul-15 18:31N 37°40' W 012°17'714.8
2017-Jul-15 18:00N 37°47' W 012°15'714.8
2017-Jul-15 17:30N 37°54' W 012°12'714.7
2017-Jul-15 17:00N 38°01' W 012°09'714.7
2017-Jul-15 16:31N 38°08' W 012°06'714.5
2017-Jul-15 16:00N 38°15' W 012°03'814.4
2017-Jul-15 15:27N 38°22' W 011°60'614.5
2017-Jul-15 15:00N 38°29' W 011°57'1514.4
2017-Jul-15 13:59N 38°43' W 011°52'714.3
2017-Jul-15 13:30N 38°49' W 011°49'714.3
2017-Jul-15 13:00N 38°56' W 011°46'714.3
2017-Jul-15 12:30N 39°03' W 011°44'814.5
2017-Jul-15 11:59N 39°10' W 011°41'714.9
2017-Jul-15 11:30N 39°17' W 011°38'714.6
2017-Jul-15 11:00N 39°24' W 011°35'714.4
2017-Jul-15 10:30N 39°31' W 011°33'714.4
2017-Jul-15 10:00N 39°38' W 011°30'714.9
2017-Jul-15 09:30N 39°45' W 011°27'714.5
2017-Jul-15 09:00N 39°51' W 011°23'714.5
2017-Jul-15 08:30N 39°58' W 011°20'714.9
2017-Jul-15 08:00N 40°05' W 011°17'714.4
2017-Jul-15 07:30N 40°12' W 011°14'714.3
2017-Jul-15 07:00N 40°19' W 011°11'814.8
2017-Jul-15 06:29N 40°26' W 011°08'914.9
2017-Jul-15 05:51N 40°35' W 011°05'614.8
2017-Jul-15 05:28N 40°41' W 011°03'2114.9
2017-Jul-15 04:05N 41°00' W 010°54'115.0
2017-Jul-15 04:00N 41°02' W 010°54'715.0
2017-Jul-15 03:30N 41°09' W 010°51'2115.0
2017-Jul-15 02:07N 41°28' W 010°42'215.1
2017-Jul-15 02:00N 41°30' W 010°41'714.8
2017-Jul-15 01:31N 41°37' W 010°39'714.6
2017-Jul-15 01:00N 41°44' W 010°36'714.9
2017-Jul-15 00:30N 41°51' W 010°33'1815.2
2017-Jul-14 23:18N 42°09' W 010°25'515.0
2017-Jul-14 23:00N 42°13' W 010°23'814.9
2017-Jul-14 22:29N 42°20' W 010°20'715.3
2017-Jul-14 22:00N 42°27' W 010°18'815.4
2017-Jul-14 21:31N 42°35' W 010°15'815.1
2017-Jul-14 21:00N 42°42' W 010°13'815.0
2017-Jul-14 20:30N 42°49' W 010°10'714.4
2017-Jul-14 20:00N 42°56' W 010°08'814.8
2017-Jul-14 19:29N 43°04' W 010°08'914.4
2017-Jul-14 18:50N 43°13' W 010°08'27514.3
2017-Jul-13 23:38N 47°17' W 007°07'1114.4
2017-Jul-13 22:53N 47°26' W 006°60'3615.4
2017-Jul-13 20:33N 47°57' W 006°33'7113.7
2017-Jul-13 15:23N 48°58' W 005°37'1014.2
2017-Jul-13 14:39N 49°03' W 005°24'214.5
2017-Jul-13 14:30N 49°04' W 005°21'714.5
2017-Jul-13 14:00N 49°08' W 005°11'5614.5
2017-Jul-13 10:07N 49°36' W 003°56'213.3
2017-Jul-13 09:58N 49°37' W 003°54'613.1
2017-Jul-13 09:30N 49°40' W 003°46'612.8
2017-Jul-13 09:01N 49°43' W 003°37'612.8
2017-Jul-13 08:30N 49°47' W 003°28'612.9
2017-Jul-13 08:00N 49°50' W 003°20'713.3
2017-Jul-13 07:30N 49°53' W 003°11'713.9
2017-Jul-13 07:00N 49°56' W 003°01'714.2
2017-Jul-13 06:30N 49°59' W 002°51'815.1
2017-Jul-13 06:00N 50°01' W 002°40'2516.8
2017-Jul-13 04:33N 50°08' W 002°03'117.7
2017-Jul-13 04:30N 50°08' W 002°02'917.9
2017-Jul-13 04:00N 50°11' W 001°49'917.7
2017-Jul-13 03:31N 50°15' W 001°36'917.4
2017-Jul-13 03:00N 50°17' W 001°23'817.0
2017-Jul-13 02:30N 50°19' W 001°10'3414.4
2017-Jul-13 00:10N 50°28' W 000°19'213.1
2017-Jul-13 00:00N 50°29' W 000°16'713.0
2017-Jul-12 23:30N 50°31' W 000°06'612.7
2017-Jul-12 23:00N 50°33' E 000°04'612.5
2017-Jul-12 22:30N 50°34' E 000°13'712.9
2017-Jul-12 22:00N 50°36' E 000°23'713.5
2017-Jul-12 21:30N 50°38' E 000°33'714.5
2017-Jul-12 21:00N 50°43' E 000°42'2515.9
2017-Jul-12 19:27N 50°58' E 001°14'716.4
2017-Jul-12 19:00N 51°02' E 001°22'815.9
2017-Jul-12 18:31N 51°07' E 001°33'714.8
2017-Jul-12 18:00N 51°11' E 001°42'714.1
2017-Jul-12 17:31N 51°17' E 001°49'713.6
2017-Jul-12 17:01N 51°22' E 001°55'713.0
2017-Jul-12 16:30N 51°28' E 002°01'713.0
2017-Jul-12 16:00N 51°33' E 002°08'21314.5
2017-Jul-12 01:17N 54°37' E 005°06'514.6
2017-Jul-12 00:59N 54°41' E 005°10'714.4
2017-Jul-12 00:30N 54°47' E 005°17'22213.8
2017-Jul-11 08:23N 57°35' E 009°36'614.4
2017-Jul-11 08:00N 57°38' E 009°45'714.3
2017-Jul-11 07:30N 57°41' E 009°57'1314.3
2017-Jul-11 06:34N 57°46' E 010°20'114.2
2017-Jul-11 06:30N 57°47' E 010°22'713.8
2017-Jul-11 06:00N 57°47' E 010°35'713.7
2017-Jul-11 05:30N 57°47' E 010°48'714.0
2017-Jul-11 04:59N 57°42' E 010°58'714.0
2017-Jul-11 04:31N 57°38' E 011°07'714.4
2017-Jul-11 04:00N 57°33' E 011°18'714.6
2017-Jul-11 03:31N 57°28' E 011°27'814.9
2017-Jul-11 03:00N 57°20' E 011°31'715.1
2017-Jul-11 02:30N 57°13' E 011°36'1015.0
2017-Jul-11 01:52N 57°04' E 011°42'1114.7
2017-Jul-11 01:06N 56°54' E 011°50'414.6
2017-Jul-11 00:52N 56°51' E 011°52'614.7
2017-Jul-11 00:28N 56°45' E 011°54'714.6
2017-Jul-11 00:00N 56°39' E 011°58'714.5
2017-Jul-10 23:31N 56°31' E 012°00'1714.2
2017-Jul-10 22:21N 56°16' E 012°11'514.5
2017-Jul-10 22:01N 56°13' E 012°18'815.2
2017-Jul-10 21:31N 56°09' E 012°29'815.9
2017-Jul-10 21:01N 56°03' E 012°39'714.7
2017-Jul-10 20:31N 55°56' E 012°44'714.6
2017-Jul-10 20:01N 55°49' E 012°43'714.2
2017-Jul-10 19:30N 55°42' E 012°41'713.1
2017-Jul-10 19:01N 55°35' E 012°42'612.1
2017-Jul-10 18:30N 55°29' E 012°43'714.3
2017-Jul-10 18:00N 55°22' E 012°41'611.5
2017-Jul-10 17:30N 55°17' E 012°46'714.2
2017-Jul-10 17:01N 55°16' E 012°58'714.6
2017-Jul-10 16:31N 55°15' E 013°11'714.7
2017-Jul-10 16:01N 55°15' E 013°24'815.1
2017-Jul-10 15:30N 55°15' E 013°37'815.4
2017-Jul-10 15:00N 55°14' E 013°51'815.3
2017-Jul-10 14:30N 55°14' E 014°04'715.0
2017-Jul-10 14:01N 55°14' E 014°17'714.8
2017-Jul-10 13:31N 55°20' E 014°26'714.9
2017-Jul-10 13:01N 55°25' E 014°34'714.8
2017-Jul-10 12:31N 55°29' E 014°45'714.8
2017-Jul-10 12:01N 55°33' E 014°56'714.9
2017-Jul-10 11:30N 55°36' E 015°08'815.1
2017-Jul-10 11:01N 55°40' E 015°20'815.1
2017-Jul-10 10:31N 55°44' E 015°31'815.0
2017-Jul-10 10:01N 55°47' E 015°43'714.9
2017-Jul-10 09:31N 55°51' E 015°54'714.9
2017-Jul-10 09:00N 55°55' E 016°06'815.0
2017-Jul-10 08:30N 55°59' E 016°17'714.9
2017-Jul-10 08:01N 56°02' E 016°29'815.0
2017-Jul-10 07:31N 56°06' E 016°40'714.9
2017-Jul-10 07:00N 56°11' E 016°51'714.7
2017-Jul-10 06:31N 56°15' E 017°02'814.6
2017-Jul-10 05:56N 56°20' E 017°14'714.4
2017-Jul-10 05:26N 56°25' E 017°24'814.2
2017-Jul-10 04:53N 56°29' E 017°35'19514.3
2017-Jul-09 15:15N 59°01' E 021°26'414.7
2017-Jul-09 15:00N 59°04' E 021°30'714.5
2017-Jul-09 14:31N 59°10' E 021°39'714.7
2017-Jul-09 14:00N 59°14' E 021°50'714.7
2017-Jul-09 13:31N 59°19' E 022°01'714.8
2017-Jul-09 13:01N 59°23' E 022°13'714.8
2017-Jul-09 12:31N 59°28' E 022°25'714.7
2017-Jul-09 12:01N 59°31' E 022°38'714.8
2017-Jul-09 11:31N 59°33' E 022°52'714.9
2017-Jul-09 11:00N 59°35' E 023°06'714.7
2017-Jul-09 10:31N 59°37' E 023°20'714.7
2017-Jul-09 10:01N 59°39' E 023°34'714.6
2017-Jul-09 09:31N 59°41' E 023°48'714.7
2017-Jul-09 09:01N 59°43' E 024°02'714.9
2017-Jul-09 08:31N 59°45' E 024°16'714.6
2017-Jul-09 08:01N 59°47' E 024°30'714.8
2017-Jul-09 07:31N 59°49' E 024°44'714.7
2017-Jul-09 07:01N 59°51' E 024°58'714.7
2017-Jul-09 06:31N 59°52' E 025°13'714.6
2017-Jul-09 06:01N 59°53' E 025°27'714.7
2017-Jul-09 05:31N 59°54' E 025°42'714.8
2017-Jul-09 05:00N 59°56' E 025°56'714.5
2017-Jul-09 04:31N 59°58' E 026°10'714.6
2017-Jul-09 04:01N 59°60' E 026°24'714.2
2017-Jul-09 03:30N 60°01' E 026°38'714.6
2017-Jul-09 03:00N 59°60' E 026°52'714.2
2017-Jul-09 02:31N 60°00' E 027°06'714.6
2017-Jul-09 02:01N 60°04' E 027°19'714.7
2017-Jul-09 01:31N 60°08' E 027°31'714.7
2017-Jul-09 01:01N 60°11' E 027°44'714.4
2017-Jul-09 00:31N 60°11' E 027°59'612.4
2017-Jul-09 00:00N 60°06' E 028°07'714.8
2017-Jul-08 23:30N 59°58' E 028°09'714.7
2017-Jul-08 23:00N 59°51' E 028°12'714.6
2017-Jul-08 22:30N 59°44' E 028°15'4 7.1
2017-Jul-08 22:00N 59°42' E 028°21'2 4.7
2017-Jul-08 21:30N 59°41' E 028°25'0 0.5
2017-Jul-08 20:50N 59°41' E 028°25'0 0.0
2017-Jul-08 20:23N 59°41' E 028°25'0 0.0
2017-Jul-08 19:53N 59°41' E 028°25'0 0.0
2017-Jul-08 19:23N 59°41' E 028°25'0 0.0
2017-Jul-08 18:53N 59°41' E 028°25'0 0.0
2017-Jul-08 18:29N 59°41' E 028°25'0 0.0
2017-Jul-08 17:59N 59°41' E 028°25'0 0.0
2017-Jul-08 17:29N 59°41' E 028°25'0 0.0
2017-Jul-08 16:56N 59°41' E 028°25'0 0.0
2017-Jul-08 16:26N 59°41' E 028°25'0 0.0
2017-Jul-08 15:56N 59°41' E 028°25'0 0.0
2017-Jul-08 15:26N 59°41' E 028°25'0 0.0
2017-Jul-08 14:59N 59°41' E 028°25'0 0.0
2017-Jul-08 13:59N 59°41' E 028°25'0 0.0
2017-Jul-08 13:29N 59°41' E 028°25'0 0.0
2017-Jul-08 12:59N 59°41' E 028°25'0 0.0
2017-Jul-08 12:29N 59°41' E 028°25'0 0.0
2017-Jul-08 11:59N 59°41' E 028°25'0 0.0
2017-Jul-08 11:29N 59°41' E 028°25'0 0.0
2017-Jul-08 10:59N 59°41' E 028°25'0 0.0
2017-Jul-08 10:29N 59°41' E 028°25'0 0.0
2017-Jul-08 09:59N 59°41' E 028°25'0 0.0
2017-Jul-08 09:29N 59°41' E 028°25'0 0.0
2017-Jul-08 08:59N 59°41' E 028°25'0 0.0
2017-Jul-08 08:29N 59°41' E 028°25'0 0.0
2017-Jul-08 07:59N 59°41' E 028°25'0 0.0
2017-Jul-08 07:29N 59°41' E 028°25'0 0.0
2017-Jul-08 06:56N 59°41' E 028°25'0 0.0
2017-Jul-08 06:29N 59°41' E 028°25'0 0.0
2017-Jul-08 06:00N 59°41' E 028°25'  

Dump ship's entire track history